createdAt,value
2023-11-20T07:23:14.844Z,99.30
2023-11-20T07:25:44.371Z,99.10
2023-11-20T07:28:11.450Z,98.40
2023-11-20T07:30:38.972Z,98.80
2023-11-20T07:33:07.470Z,98.40
2023-11-20T07:35:36.866Z,97.90
2023-11-20T07:38:04.237Z,98.50
2023-11-20T07:40:31.307Z,98.00
2023-11-20T07:42:58.424Z,97.00
2023-11-20T07:45:26.184Z,97.30
2023-11-20T07:47:53.272Z,96.90
2023-11-20T07:50:20.495Z,96.70
2023-11-20T07:52:47.714Z,96.50
2023-11-20T07:55:14.762Z,96.70
2023-11-20T07:57:42.820Z,96.20
2023-11-20T08:00:13.560Z,96.20
2023-11-20T08:02:41.186Z,96.10
2023-11-20T08:05:10.254Z,95.80
2023-11-20T08:07:37.689Z,95.70
2023-11-20T08:10:06.971Z,95.60
2023-11-20T08:12:35.088Z,95.60
2023-11-20T08:15:04.009Z,95.50
2023-11-20T08:17:31.110Z,95.20
2023-11-20T08:19:58.215Z,95.50
2023-11-20T08:22:25.238Z,94.70
2023-11-20T08:24:52.369Z,94.20
2023-11-20T08:27:19.511Z,93.80
2023-11-20T08:29:46.509Z,93.20
2023-11-20T08:32:13.817Z,92.60
2023-11-20T08:34:40.980Z,93.00
2023-11-20T08:37:08.059Z,92.50
2023-11-20T08:39:43.788Z,92.10
2023-11-20T08:42:10.849Z,92.00
2023-11-20T08:44:37.919Z,91.80
2023-11-20T08:47:07.163Z,90.80
2023-11-20T08:49:34.300Z,91.00
2023-11-20T08:52:04.895Z,89.60
2023-11-20T08:54:33.747Z,89.40
2023-11-20T08:57:26.673Z,89.50
2023-11-20T08:59:56.790Z,88.40
2023-11-20T09:02:24.091Z,88.20
2023-11-20T09:04:51.474Z,87.40
2023-11-20T09:07:18.629Z,86.90
2023-11-20T09:09:47.432Z,87.00
2023-11-20T09:12:14.729Z,87.40
2023-11-20T09:14:41.929Z,86.70
2023-11-20T09:17:09.010Z,85.60
2023-11-20T09:19:36.070Z,84.60
2023-11-20T09:22:03.173Z,84.70
2023-11-20T09:24:30.440Z,83.80
2023-11-20T09:26:57.822Z,84.20
2023-11-20T09:29:25.036Z,84.20
2023-11-20T09:31:55.885Z,83.50
2023-11-20T09:34:25.136Z,83.20
2023-11-20T09:36:52.544Z,79.80
2023-11-20T09:39:20.327Z,78.80
2023-11-20T09:41:47.412Z,76.50
2023-11-20T09:44:14.934Z,73.90
2023-11-20T09:46:45.861Z,75.50
2023-11-20T09:49:24.075Z,75.70
2023-11-20T09:51:53.562Z,73.70
2023-11-20T09:54:21.535Z,75.50
2023-11-20T09:56:49.123Z,75.80
2023-11-20T09:59:16.200Z,75.10
2023-11-20T10:01:47.041Z,73.70
2023-11-20T10:04:18.179Z,73.80
2023-11-20T10:06:46.480Z,74.90
2023-11-20T10:09:14.193Z,75.80
2023-11-20T10:11:48.915Z,74.30
2023-11-20T10:14:21.855Z,76.00
2023-11-20T10:16:57.521Z,76.50
2023-11-20T10:19:25.193Z,77.60
2023-11-20T10:21:53.263Z,77.70
2023-11-20T10:24:22.515Z,79.30
2023-11-20T10:26:50.412Z,78.70
2023-11-20T10:29:18.001Z,78.60
2023-11-20T10:31:46.132Z,79.20
2023-11-20T10:34:14.000Z,80.00
2023-11-20T12:19:14.170Z,67.50
2023-11-20T12:21:44.865Z,68.90
2023-11-20T12:24:12.970Z,68.30
2023-11-20T12:26:40.040Z,66.00
2023-11-20T12:29:09.136Z,67.90
2023-11-20T12:31:36.330Z,67.00
2023-11-20T12:34:03.955Z,67.80
2023-11-20T12:36:32.001Z,67.80
2023-11-20T12:38:59.428Z,67.90
2023-11-20T12:41:28.877Z,68.80
2023-11-20T12:43:55.998Z,68.80
2023-11-20T12:46:23.488Z,68.20
2023-11-20T12:48:52.913Z,70.20
2023-11-20T12:51:37.781Z,69.40
2023-11-20T12:54:05.216Z,71.90
2023-11-20T12:56:32.282Z,72.90
2023-11-20T12:58:59.330Z,74.30
2023-11-20T13:01:26.732Z,74.40
2023-11-20T13:03:54.062Z,75.80
2023-11-20T13:06:21.404Z,75.80
2023-11-20T13:08:50.111Z,75.50
2023-11-20T13:11:19.177Z,76.50
2023-11-20T13:13:49.034Z,77.00
2023-11-20T13:16:18.706Z,77.40
2023-11-20T13:18:51.246Z,77.30
2023-11-20T13:21:27.285Z,77.20
2023-11-20T13:24:11.144Z,77.20
2023-11-20T13:26:45.083Z,78.00
2023-11-20T13:29:12.903Z,78.10
2023-11-20T13:31:40.248Z,78.40
2023-11-20T13:34:08.977Z,78.70
2023-11-20T13:36:41.292Z,78.60
2023-11-20T13:39:09.482Z,78.30
2023-11-20T13:41:37.254Z,78.80
2023-11-20T13:46:34.991Z,79.60
2023-11-20T13:49:02.497Z,80.20
2023-11-20T13:51:30.275Z,79.50
2023-11-20T13:53:58.967Z,80.10
2023-11-20T13:56:26.318Z,80.20
2023-11-20T13:58:53.408Z,80.10
2023-11-20T14:01:20.790Z,80.80
2023-11-20T14:03:48.657Z,81.10
2023-11-20T14:06:17.023Z,80.70
2023-11-20T14:08:44.407Z,81.70
2023-11-20T14:11:11.503Z,81.10
2023-11-20T14:13:38.684Z,82.60
2023-11-20T14:16:09.667Z,82.50
2023-11-20T14:18:37.858Z,82.60
2023-11-20T14:21:08.337Z,82.00
2023-11-20T14:23:36.309Z,82.80
2023-11-20T14:26:19.727Z,82.70
2023-11-20T14:28:51.961Z,83.90
2023-11-20T14:31:19.258Z,84.00
2023-11-20T14:33:46.914Z,84.40
2023-11-20T14:36:15.003Z,84.70
2023-11-20T14:38:42.323Z,84.50
2023-11-20T14:41:09.611Z,84.60
2023-11-20T14:43:37.612Z,84.30
2023-11-20T14:46:07.719Z,84.80
2023-11-20T14:48:36.721Z,84.60
2023-11-20T14:51:05.676Z,84.90
2023-11-20T14:53:32.790Z,84.90
2023-11-20T14:56:00.516Z,84.50
2023-11-20T14:58:27.606Z,84.70
2023-11-20T15:00:56.074Z,85.00
2023-11-20T15:03:25.700Z,84.60
2023-11-20T15:05:53.867Z,85.10
2023-11-20T15:08:21.437Z,85.80
2023-11-20T15:10:48.503Z,84.70
2023-11-20T15:13:15.663Z,85.30
2023-11-20T15:15:42.975Z,85.20
2023-11-20T15:18:10.158Z,85.00
2023-11-20T15:20:37.654Z,84.90
2023-11-20T15:23:05.504Z,85.10
2023-11-20T15:25:34.183Z,84.80
2023-11-20T15:28:01.615Z,85.20
2023-11-20T15:30:29.361Z,84.50
2023-11-20T15:32:57.729Z,84.30
2023-11-20T15:47:22.418Z,84.70
2023-11-20T15:49:49.805Z,84.20
2023-11-20T15:52:17.672Z,84.90
2023-11-20T15:54:44.839Z,84.30
